sensor_id;sensor_type;location;lat;lon;timestamp;temperature;humidity
61912;DHT22;49973;52.084;5.412;2022-12-18T00:00:10;-2.80;99.90
61912;DHT22;49973;52.084;5.412;2022-12-18T00:02:41;-2.80;99.90
61912;DHT22;49973;52.084;5.412;2022-12-18T00:05:12;-2.90;99.90
61912;DHT22;49973;52.084;5.412;2022-12-18T00:07:41;-2.90;99.90
61912;DHT22;49973;52.084;5.412;2022-12-18T00:10:09;-2.90;99.90
61912;DHT22;49973;52.084;5.412;2022-12-18T00:12:41;-3.00;99.90
61912;DHT22;49973;52.084;5.412;2022-12-18T00:15:10;-3.00;99.90
61912;DHT22;49973;52.084;5.412;2022-12-18T00:17:38;-3.00;99.90
61912;DHT22;49973;52.084;5.412;2022-12-18T00:20:08;-3.20;99.90
61912;DHT22;49973;52.084;5.412;2022-12-18T00:22:38;-3.10;99.90
61912;DHT22;49973;52.084;5.412;2022-12-18T00:25:08;-3.10;99.90
61912;DHT22;49973;52.084;5.412;2022-12-18T00:27:36;-3.10;99.90
61912;DHT22;49973;52.084;5.412;2022-12-18T00:30:06;-3.10;99.90
61912;DHT22;49973;52.084;5.412;2022-12-18T00:32:36;-3.00;99.90
61912;DHT22;49973;52.084;5.412;2022-12-18T00:35:05;-3.00;99.90
61912;DHT22;49973;52.084;5.412;2022-12-18T00:37:34;-3.00;99.90
61912;DHT22;49973;52.084;5.412;2022-12-18T00:40:07;-3.00;99.90
61912;DHT22;49973;52.084;5.412;2022-12-18T00:42:36;-3.00;99.90
61912;DHT22;49973;52.084;5.412;2022-12-18T00:45:23;-3.00;99.90
61912;DHT22;49973;52.084;5.412;2022-12-18T00:47:52;-3.00;99.90
61912;DHT22;49973;52.084;5.412;2022-12-18T00:50:21;-3.10;99.90
61912;DHT22;49973;52.084;5.412;2022-12-18T00:52:50;-3.10;99.90
61912;DHT22;49973;52.084;5.412;2022-12-18T00:55:20;-3.10;99.90
61912;DHT22;49973;52.084;5.412;2022-12-18T00:57:50;-3.10;99.90
61912;DHT22;49973;52.084;5.412;2022-12-18T01:00:19;-3.20;99.90
61912;DHT22;49973;52.084;5.412;2022-12-18T01:02:48;-3.20;99.90
61912;DHT22;49973;52.084;5.412;2022-12-18T01:05:17;-3.30;99.90
61912;DHT22;49973;52.084;5.412;2022-12-18T01:07:45;-3.30;99.90
61912;DHT22;49973;52.084;5.412;2022-12-18T01:10:14;-3.40;99.90
61912;DHT22;49973;52.084;5.412;2022-12-18T01:12:44;-3.40;99.90
61912;DHT22;49973;52.084;5.412;2022-12-18T01:15:13;-3.50;99.90
61912;DHT22;49973;52.084;5.412;2022-12-18T01:17:43;-3.50;99.90
61912;DHT22;49973;52.084;5.412;2022-12-18T01:20:12;-3.60;99.90
61912;DHT22;49973;52.084;5.412;2022-12-18T01:22:41;-3.60;99.90
61912;DHT22;49973;52.084;5.412;2022-12-18T01:25:09;-3.70;99.90
61912;DHT22;49973;52.084;5.412;2022-12-18T01:27:38;-3.70;99.90
61912;DHT22;49973;52.084;5.412;2022-12-18T01:30:09;-3.80;99.90
61912;DHT22;49973;52.084;5.412;2022-12-18T01:32:37;-3.80;99.90
61912;DHT22;49973;52.084;5.412;2022-12-18T01:35:07;-3.90;99.90
61912;DHT22;49973;52.084;5.412;2022-12-18T01:37:35;-3.90;99.90
61912;DHT22;49973;52.084;5.412;2022-12-18T01:40:05;-4.00;99.90
61912;DHT22;49973;52.084;5.412;2022-12-18T01:42:34;-4.00;99.90
61912;DHT22;49973;52.084;5.412;2022-12-18T01:45:24;-4.10;99.90
61912;DHT22;49973;52.084;5.412;2022-12-18T01:47:55;-4.10;99.90
61912;DHT22;49973;52.084;5.412;2022-12-18T01:50:28;-4.10;99.90
61912;DHT22;49973;52.084;5.412;2022-12-18T01:53:02;-4.20;99.90
61912;DHT22;49973;52.084;5.412;2022-12-18T01:55:35;-4.20;99.90
61912;DHT22;49973;52.084;5.412;2022-12-18T01:58:05;-4.20;99.90
61912;DHT22;49973;52.084;5.412;2022-12-18T02:00:35;-4.20;99.90
61912;DHT22;49973;52.084;5.412;2022-12-18T02:03:04;-4.30;99.90
61912;DHT22;49973;52.084;5.412;2022-12-18T02:05:40;-4.30;99.90
61912;DHT22;49973;52.084;5.412;2022-12-18T02:08:17;-4.30;99.90
61912;DHT22;49973;52.084;5.412;2022-12-18T02:10:53;-4.30;99.90
61912;DHT22;49973;52.084;5.412;2022-12-18T02:13:32;-4.30;99.90
61912;DHT22;49973;52.084;5.412;2022-12-18T02:16:06;-4.30;99.90
61912;DHT22;49973;52.084;5.412;2022-12-18T02:18:43;-4.40;99.90
61912;DHT22;49973;52.084;5.412;2022-12-18T02:21:17;-4.40;99.90
61912;DHT22;49973;52.084;5.412;2022-12-18T02:23:54;-4.40;99.90
61912;DHT22;49973;52.084;5.412;2022-12-18T02:26:30;-4.40;99.90
61912;DHT22;49973;52.084;5.412;2022-12-18T02:29:04;-4.50;99.90
61912;DHT22;49973;52.084;5.412;2022-12-18T02:31:40;-4.50;99.90
61912;DHT22;49973;52.084;5.412;2022-12-18T02:34:11;-4.50;99.90
61912;DHT22;49973;52.084;5.412;2022-12-18T02:36:42;-4.60;99.90
61912;DHT22;49973;52.084;5.412;2022-12-18T02:39:13;-4.60;99.90
61912;DHT22;49973;52.084;5.412;2022-12-18T02:41:57;-4.70;99.90
61912;DHT22;49973;52.084;5.412;2022-12-18T02:44:26;-4.70;99.90
61912;DHT22;49973;52.084;5.412;2022-12-18T02:46:55;-4.80;99.90
61912;DHT22;49973;52.084;5.412;2022-12-18T02:49:32;-4.80;99.90
61912;DHT22;49973;52.084;5.412;2022-12-18T02:52:10;-4.80;99.90
61912;DHT22;49973;52.084;5.412;2022-12-18T02:54:52;-4.90;99.90
61912;DHT22;49973;52.084;5.412;2022-12-18T02:57:33;-4.90;99.90
61912;DHT22;49973;52.084;5.412;2022-12-18T03:00:07;-5.00;99.90
61912;DHT22;49973;52.084;5.412;2022-12-18T03:02:41;-4.90;99.90
61912;DHT22;49973;52.084;5.412;2022-12-18T03:05:14;-5.10;99.90
61912;DHT22;49973;52.084;5.412;2022-12-18T03:07:49;-5.10;99.90
61912;DHT22;49973;52.084;5.412;2022-12-18T03:10:23;-5.10;99.90
61912;DHT22;49973;52.084;5.412;2022-12-18T03:13:00;-5.10;99.90
61912;DHT22;49973;52.084;5.412;2022-12-18T03:15:35;-5.10;99.90
61912;DHT22;49973;52.084;5.412;2022-12-18T03:18:11;-5.10;99.90
61912;DHT22;49973;52.084;5.412;2022-12-18T03:20:44;-5.10;99.90
61912;DHT22;49973;52.084;5.412;2022-12-18T03:23:21;-5.10;99.90
61912;DHT22;49973;52.084;5.412;2022-12-18T03:26:09;-5.10;99.90
61912;DHT22;49973;52.084;5.412;2022-12-18T03:28:44;-5.10;99.90
61912;DHT22;49973;52.084;5.412;2022-12-18T03:31:14;-5.10;99.90
61912;DHT22;49973;52.084;5.412;2022-12-18T03:33:47;-5.20;99.90
61912;DHT22;49973;52.084;5.412;2022-12-18T03:36:23;-5.20;99.90
61912;DHT22;49973;52.084;5.412;2022-12-18T03:38:52;-5.20;99.90
61912;DHT22;49973;52.084;5.412;2022-12-18T03:41:30;-5.30;99.90
61912;DHT22;49973;52.084;5.412;2022-12-18T03:44:29;-5.30;99.90
61912;DHT22;49973;52.084;5.412;2022-12-18T03:47:08;-5.30;99.90
61912;DHT22;49973;52.084;5.412;2022-12-18T03:49:42;-5.30;99.90
61912;DHT22;49973;52.084;5.412;2022-12-18T03:52:17;-5.20;99.90
61912;DHT22;49973;52.084;5.412;2022-12-18T03:54:49;-5.20;99.90
61912;DHT22;49973;52.084;5.412;2022-12-18T03:57:22;-5.20;99.90
61912;DHT22;49973;52.084;5.412;2022-12-18T03:59:57;-5.20;99.90
61912;DHT22;49973;52.084;5.412;2022-12-18T04:02:43;-5.20;99.90
61912;DHT22;49973;52.084;5.412;2022-12-18T04:05:19;-5.10;99.90
61912;DHT22;49973;52.084;5.412;2022-12-18T04:07:49;-5.10;99.90
61912;DHT22;49973;52.084;5.412;2022-12-18T04:10:19;-5.10;99.90
61912;DHT22;49973;52.084;5.412;2022-12-18T04:12:48;-5.10;99.90
61912;DHT22;49973;52.084;5.412;2022-12-18T04:15:20;-5.10;99.90
61912;DHT22;49973;52.084;5.412;2022-12-18T04:17:50;-5.10;99.90
61912;DHT22;49973;52.084;5.412;2022-12-18T04:20:24;-5.10;99.90
61912;DHT22;49973;52.084;5.412;2022-12-18T04:22:53;-5.10;99.90
61912;DHT22;49973;52.084;5.412;2022-12-18T04:25:21;-5.10;99.90
61912;DHT22;49973;52.084;5.412;2022-12-18T04:28:01;-5.10;99.90
61912;DHT22;49973;52.084;5.412;2022-12-18T04:30:31;-5.10;99.90
61912;DHT22;49973;52.084;5.412;2022-12-18T04:33:00;-5.10;99.90
61912;DHT22;49973;52.084;5.412;2022-12-18T04:35:30;-5.20;99.90
61912;DHT22;49973;52.084;5.412;2022-12-18T04:37:59;-5.20;99.90
61912;DHT22;49973;52.084;5.412;2022-12-18T04:40:27;-5.20;99.90
61912;DHT22;49973;52.084;5.412;2022-12-18T04:42:56;-5.20;99.90
61912;DHT22;49973;52.084;5.412;2022-12-18T04:45:25;-5.20;99.90
61912;DHT22;49973;52.084;5.412;2022-12-18T04:47:57;-5.20;99.90
61912;DHT22;49973;52.084;5.412;2022-12-18T04:50:25;-5.20;99.90
61912;DHT22;49973;52.084;5.412;2022-12-18T04:52:54;-5.20;99.90
61912;DHT22;49973;52.084;5.412;2022-12-18T04:55:23;-5.20;99.90
61912;DHT22;49973;52.084;5.412;2022-12-18T04:57:52;-5.10;99.90
61912;DHT22;49973;52.084;5.412;2022-12-18T05:00:21;-5.10;99.90
61912;DHT22;49973;52.084;5.412;2022-12-18T05:02:49;-5.10;99.90
61912;DHT22;49973;52.084;5.412;2022-12-18T05:05:19;-5.10;99.90
61912;DHT22;49973;52.084;5.412;2022-12-18T05:07:47;-5.10;99.90
61912;DHT22;49973;52.084;5.412;2022-12-18T05:10:16;-5.10;99.90
61912;DHT22;49973;52.084;5.412;2022-12-18T05:12:45;-5.10;99.90
61912;DHT22;49973;52.084;5.412;2022-12-18T05:15:29;-5.10;99.90
61912;DHT22;49973;52.084;5.412;2022-12-18T05:17:58;-5.10;99.90
61912;DHT22;49973;52.084;5.412;2022-12-18T05:20:28;-5.20;99.90
61912;DHT22;49973;52.084;5.412;2022-12-18T05:22:57;-5.20;99.90
61912;DHT22;49973;52.084;5.412;2022-12-18T05:25:26;-5.20;99.90
61912;DHT22;49973;52.084;5.412;2022-12-18T05:27:55;-5.20;99.90
61912;DHT22;49973;52.084;5.412;2022-12-18T05:30:24;-5.30;99.90
61912;DHT22;49973;52.084;5.412;2022-12-18T05:32:52;-5.30;99.90
61912;DHT22;49973;52.084;5.412;2022-12-18T05:35:21;-5.30;99.90
61912;DHT22;49973;52.084;5.412;2022-12-18T05:37:51;-5.30;99.90
61912;DHT22;49973;52.084;5.412;2022-12-18T05:40:19;-5.40;99.90
61912;DHT22;49973;52.084;5.412;2022-12-18T05:42:47;-5.40;99.90
61912;DHT22;49973;52.084;5.412;2022-12-18T05:45:16;-5.40;99.90
61912;DHT22;49973;52.084;5.412;2022-12-18T05:47:45;-5.40;99.90
61912;DHT22;49973;52.084;5.412;2022-12-18T05:50:13;-5.40;99.90
61912;DHT22;49973;52.084;5.412;2022-12-18T05:52:42;-5.40;99.90
61912;DHT22;49973;52.084;5.412;2022-12-18T05:55:12;-5.50;99.90
61912;DHT22;49973;52.084;5.412;2022-12-18T05:57:40;-5.40;99.90
61912;DHT22;49973;52.084;5.412;2022-12-18T06:00:10;-5.40;99.90
61912;DHT22;49973;52.084;5.412;2022-12-18T06:02:39;-5.40;99.90
61912;DHT22;49973;52.084;5.412;2022-12-18T06:05:08;-5.40;99.90
61912;DHT22;49973;52.084;5.412;2022-12-18T06:07:36;-5.30;99.90
61912;DHT22;49973;52.084;5.412;2022-12-18T06:10:05;-5.30;99.90
61912;DHT22;49973;52.084;5.412;2022-12-18T06:12:36;-5.30;99.90
61912;DHT22;49973;52.084;5.412;2022-12-18T06:15:05;-5.30;99.90
61912;DHT22;49973;52.084;5.412;2022-12-18T06:17:34;-5.30;99.90
61912;DHT22;49973;52.084;5.412;2022-12-18T06:20:04;-5.30;99.90
61912;DHT22;49973;52.084;5.412;2022-12-18T06:22:34;-5.30;99.90
61912;DHT22;49973;52.084;5.412;2022-12-18T06:25:03;-5.20;99.90
61912;DHT22;49973;52.084;5.412;2022-12-18T06:27:35;-5.20;99.90
61912;DHT22;49973;52.084;5.412;2022-12-18T06:30:04;-5.20;99.90
61912;DHT22;49973;52.084;5.412;2022-12-18T06:32:33;-5.20;99.90
61912;DHT22;49973;52.084;5.412;2022-12-18T06:35:02;-5.20;99.90
61912;DHT22;49973;52.084;5.412;2022-12-18T06:37:31;-5.20;99.90
61912;DHT22;49973;52.084;5.412;2022-12-18T06:39:59;-5.20;99.90
61912;DHT22;49973;52.084;5.412;2022-12-18T06:42:28;-5.20;99.90
61912;DHT22;49973;52.084;5.412;2022-12-18T06:44:58;-5.20;99.90
61912;DHT22;49973;52.084;5.412;2022-12-18T06:47:27;-5.20;99.90
61912;DHT22;49973;52.084;5.412;2022-12-18T06:49:56;-5.20;99.90
61912;DHT22;49973;52.084;5.412;2022-12-18T06:52:24;-5.20;99.90
61912;DHT22;49973;52.084;5.412;2022-12-18T06:54:53;-5.30;99.90
61912;DHT22;49973;52.084;5.412;2022-12-18T06:57:21;-5.30;99.90
61912;DHT22;49973;52.084;5.412;2022-12-18T06:59:50;-5.30;99.90
61912;DHT22;49973;52.084;5.412;2022-12-18T07:02:20;-5.30;99.90
61912;DHT22;49973;52.084;5.412;2022-12-18T07:04:50;-5.30;99.90
61912;DHT22;49973;52.084;5.412;2022-12-18T07:07:19;-5.40;99.90
61912;DHT22;49973;52.084;5.412;2022-12-18T07:09:49;-5.40;99.90
61912;DHT22;49973;52.084;5.412;2022-12-18T07:12:18;-5.40;99.90
61912;DHT22;49973;52.084;5.412;2022-12-18T07:14:46;-5.40;99.90
61912;DHT22;49973;52.084;5.412;2022-12-18T07:17:15;-5.40;99.90
61912;DHT22;49973;52.084;5.412;2022-12-18T07:19:45;-5.40;99.90
61912;DHT22;49973;52.084;5.412;2022-12-18T07:22:13;-5.40;99.90
61912;DHT22;49973;52.084;5.412;2022-12-18T07:24:42;-5.40;99.90
61912;DHT22;49973;52.084;5.412;2022-12-18T07:27:10;-5.40;99.90
61912;DHT22;49973;52.084;5.412;2022-12-18T07:29:39;-5.40;99.90
61912;DHT22;49973;52.084;5.412;2022-12-18T07:32:08;-5.40;99.90
61912;DHT22;49973;52.084;5.412;2022-12-18T07:34:36;-5.40;99.90
61912;DHT22;49973;52.084;5.412;2022-12-18T07:37:06;-5.40;99.90
61912;DHT22;49973;52.084;5.412;2022-12-18T07:39:35;-5.30;99.90
61912;DHT22;49973;52.084;5.412;2022-12-18T07:42:03;-5.30;99.90
61912;DHT22;49973;52.084;5.412;2022-12-18T07:44:51;-5.30;99.90
61912;DHT22;49973;52.084;5.412;2022-12-18T07:47:19;-5.40;99.90
61912;DHT22;49973;52.084;5.412;2022-12-18T07:49:48;-5.40;99.90
61912;DHT22;49973;52.084;5.412;2022-12-18T07:52:18;-5.30;99.90
61912;DHT22;49973;52.084;5.412;2022-12-18T07:54:52;-5.30;99.90
61912;DHT22;49973;52.084;5.412;2022-12-18T07:57:20;-5.30;99.90
61912;DHT22;49973;52.084;5.412;2022-12-18T08:00:10;-5.30;99.90
61912;DHT22;49973;52.084;5.412;2022-12-18T08:02:39;-5.20;99.90
61912;DHT22;49973;52.084;5.412;2022-12-18T08:05:08;-5.20;99.90
61912;DHT22;49973;52.084;5.412;2022-12-18T08:07:38;-5.20;99.90
61912;DHT22;49973;52.084;5.412;2022-12-18T08:10:07;-5.20;99.90
61912;DHT22;49973;52.084;5.412;2022-12-18T08:12:36;-5.10;99.90
61912;DHT22;49973;52.084;5.412;2022-12-18T08:15:05;-5.10;99.90
61912;DHT22;49973;52.084;5.412;2022-12-18T08:17:34;-5.00;99.90
61912;DHT22;49973;52.084;5.412;2022-12-18T08:20:03;-5.00;99.90
61912;DHT22;49973;52.084;5.412;2022-12-18T08:22:33;-4.90;99.90
61912;DHT22;49973;52.084;5.412;2022-12-18T08:25:04;-4.90;99.90
61912;DHT22;49973;52.084;5.412;2022-12-18T08:27:33;-4.80;99.90
61912;DHT22;49973;52.084;5.412;2022-12-18T08:30:02;-4.80;99.90
61912;DHT22;49973;52.084;5.412;2022-12-18T08:32:31;-4.70;99.90
61912;DHT22;49973;52.084;5.412;2022-12-18T08:35:01;-4.60;99.90
61912;DHT22;49973;52.084;5.412;2022-12-18T08:37:29;-4.60;99.90
61912;DHT22;49973;52.084;5.412;2022-12-18T08:39:57;-4.50;99.90
61912;DHT22;49973;52.084;5.412;2022-12-18T08:42:27;-4.50;99.90
61912;DHT22;49973;52.084;5.412;2022-12-18T08:45:14;-4.40;99.90
61912;DHT22;49973;52.084;5.412;2022-12-18T08:47:43;-4.30;99.90
61912;DHT22;49973;52.084;5.412;2022-12-18T08:50:13;-4.30;99.90
61912;DHT22;49973;52.084;5.412;2022-12-18T08:52:42;-4.20;99.90
61912;DHT22;49973;52.084;5.412;2022-12-18T08:55:10;-4.20;99.90
61912;DHT22;49973;52.084;5.412;2022-12-18T08:57:40;-4.10;99.90
61912;DHT22;49973;52.084;5.412;2022-12-18T09:00:09;-4.00;99.90
61912;DHT22;49973;52.084;5.412;2022-12-18T09:02:38;-3.90;99.90
61912;DHT22;49973;52.084;5.412;2022-12-18T09:05:07;-3.80;99.90
61912;DHT22;49973;52.084;5.412;2022-12-18T09:07:36;-3.80;99.90
61912;DHT22;49973;52.084;5.412;2022-12-18T09:10:05;-3.70;99.90
61912;DHT22;49973;52.084;5.412;2022-12-18T09:12:34;-3.60;99.90
61912;DHT22;49973;52.084;5.412;2022-12-18T09:15:05;-3.50;99.90
61912;DHT22;49973;52.084;5.412;2022-12-18T09:17:34;-3.40;99.90
61912;DHT22;49973;52.084;5.412;2022-12-18T09:20:02;-3.30;99.90
61912;DHT22;49973;52.084;5.412;2022-12-18T09:22:31;-3.20;99.90
61912;DHT22;49973;52.084;5.412;2022-12-18T09:24:59;-3.20;99.90
61912;DHT22;49973;52.084;5.412;2022-12-18T09:27:28;-3.10;99.90
61912;DHT22;49973;52.084;5.412;2022-12-18T09:29:57;-3.00;99.90
61912;DHT22;49973;52.084;5.412;2022-12-18T09:32:27;-2.90;99.90
61912;DHT22;49973;52.084;5.412;2022-12-18T09:34:56;-2.90;99.90
61912;DHT22;49973;52.084;5.412;2022-12-18T09:37:25;-2.80;99.90
61912;DHT22;49973;52.084;5.412;2022-12-18T09:39:53;-2.70;99.90
61912;DHT22;49973;52.084;5.412;2022-12-18T09:42:22;-2.70;99.90
61912;DHT22;49973;52.084;5.412;2022-12-18T09:44:53;-2.60;99.90
61912;DHT22;49973;52.084;5.412;2022-12-18T09:47:24;-2.60;99.90
61912;DHT22;49973;52.084;5.412;2022-12-18T09:49:58;-2.50;99.90
61912;DHT22;49973;52.084;5.412;2022-12-18T09:52:29;-2.50;99.90
61912;DHT22;49973;52.084;5.412;2022-12-18T09:55:01;-2.40;99.90
61912;DHT22;49973;52.084;5.412;2022-12-18T09:57:33;-2.40;99.90
61912;DHT22;49973;52.084;5.412;2022-12-18T10:00:16;-2.30;99.90
61912;DHT22;49973;52.084;5.412;2022-12-18T10:02:46;-2.20;99.90
61912;DHT22;49973;52.084;5.412;2022-12-18T10:05:19;-2.20;99.90
61912;DHT22;49973;52.084;5.412;2022-12-18T10:07:53;-2.10;99.90
61912;DHT22;49973;52.084;5.412;2022-12-18T10:10:32;-2.10;99.90
61912;DHT22;49973;52.084;5.412;2022-12-18T10:13:12;-2.00;99.90
61912;DHT22;49973;52.084;5.412;2022-12-18T10:15:54;-1.90;99.90
61912;DHT22;49973;52.084;5.412;2022-12-18T10:18:35;-1.90;99.90
61912;DHT22;49973;52.084;5.412;2022-12-18T10:21:11;-1.90;99.90
61912;DHT22;49973;52.084;5.412;2022-12-18T10:23:46;-1.80;99.90
61912;DHT22;49973;52.084;5.412;2022-12-18T10:26:19;-1.80;99.90
61912;DHT22;49973;52.084;5.412;2022-12-18T10:28:48;-1.70;99.90
61912;DHT22;49973;52.084;5.412;2022-12-18T10:31:20;-1.70;99.90
61912;DHT22;49973;52.084;5.412;2022-12-18T10:33:51;-1.60;99.90
61912;DHT22;49973;52.084;5.412;2022-12-18T10:36:24;-1.50;99.90
61912;DHT22;49973;52.084;5.412;2022-12-18T10:38:53;-1.50;99.90
61912;DHT22;49973;52.084;5.412;2022-12-18T10:41:26;-1.50;99.90
61912;DHT22;49973;52.084;5.412;2022-12-18T10:44:12;-1.40;99.90
61912;DHT22;49973;52.084;5.412;2022-12-18T10:46:40;-1.40;99.90
61912;DHT22;49973;52.084;5.412;2022-12-18T10:49:19;-1.40;99.90
61912;DHT22;49973;52.084;5.412;2022-12-18T10:51:51;-1.30;99.90
61912;DHT22;49973;52.084;5.412;2022-12-18T10:54:32;-1.20;99.90
61912;DHT22;49973;52.084;5.412;2022-12-18T10:57:15;-1.20;99.90
61912;DHT22;49973;52.084;5.412;2022-12-18T10:59:51;-1.10;99.90
61912;DHT22;49973;52.084;5.412;2022-12-18T11:02:28;-1.10;99.90
61912;DHT22;49973;52.084;5.412;2022-12-18T11:05:02;-1.00;99.90
61912;DHT22;49973;52.084;5.412;2022-12-18T11:07:49;-0.90;99.90
61912;DHT22;49973;52.084;5.412;2022-12-18T11:10:19;-0.90;99.90
61912;DHT22;49973;52.084;5.412;2022-12-18T11:12:48;-0.90;99.90
61912;DHT22;49973;52.084;5.412;2022-12-18T11:15:19;-0.80;99.90
61912;DHT22;49973;52.084;5.412;2022-12-18T11:17:50;-0.80;99.90
61912;DHT22;49973;52.084;5.412;2022-12-18T11:20:23;-0.70;99.90
61912;DHT22;49973;52.084;5.412;2022-12-18T11:22:58;-0.70;99.90
61912;DHT22;49973;52.084;5.412;2022-12-18T11:25:29;-0.60;99.90
61912;DHT22;49973;52.084;5.412;2022-12-18T11:28:02;-0.60;99.90
61912;DHT22;49973;52.084;5.412;2022-12-18T11:30:32;-0.50;99.90
61912;DHT22;49973;52.084;5.412;2022-12-18T11:33:04;-0.50;99.90
61912;DHT22;49973;52.084;5.412;2022-12-18T11:35:39;-0.40;99.90
61912;DHT22;49973;52.084;5.412;2022-12-18T11:38:18;-0.40;99.90
61912;DHT22;49973;52.084;5.412;2022-12-18T11:40:56;-0.40;99.90
61912;DHT22;49973;52.084;5.412;2022-12-18T11:43:29;-0.30;99.90
61912;DHT22;49973;52.084;5.412;2022-12-18T11:46:02;-0.30;99.90
61912;DHT22;49973;52.084;5.412;2022-12-18T11:48:36;-0.20;99.90
61912;DHT22;49973;52.084;5.412;2022-12-18T11:51:12;-0.20;99.90
61912;DHT22;49973;52.084;5.412;2022-12-18T11:53:44;-0.20;99.90
61912;DHT22;49973;52.084;5.412;2022-12-18T11:56:28;-0.10;99.90
61912;DHT22;49973;52.084;5.412;2022-12-18T11:59:04;-0.10;99.90
61912;DHT22;49973;52.084;5.412;2022-12-18T12:01:45;0.00;99.90
61912;DHT22;49973;52.084;5.412;2022-12-18T12:04:48;0.00;99.90
61912;DHT22;49973;52.084;5.412;2022-12-18T12:07:28;0.00;99.90
61912;DHT22;49973;52.084;5.412;2022-12-18T12:10:14;0.00;99.90
61912;DHT22;49973;52.084;5.412;2022-12-18T12:12:57;0.00;99.90
61912;DHT22;49973;52.084;5.412;2022-12-18T12:15:38;0.00;99.90
61912;DHT22;49973;52.084;5.412;2022-12-18T12:18:17;0.00;99.90
61912;DHT22;49973;52.084;5.412;2022-12-18T12:20:56;0.00;99.90
61912;DHT22;49973;52.084;5.412;2022-12-18T12:23:38;0.10;99.90
61912;DHT22;49973;52.084;5.412;2022-12-18T12:26:13;0.10;99.90
61912;DHT22;49973;52.084;5.412;2022-12-18T12:28:56;0.10;99.90
61912;DHT22;49973;52.084;5.412;2022-12-18T12:31:38;0.10;99.90
61912;DHT22;49973;52.084;5.412;2022-12-18T12:34:16;0.20;99.90
61912;DHT22;49973;52.084;5.412;2022-12-18T12:36:57;0.20;99.90
61912;DHT22;49973;52.084;5.412;2022-12-18T12:39:31;0.20;99.90
61912;DHT22;49973;52.084;5.412;2022-12-18T12:42:04;0.20;99.90
61912;DHT22;49973;52.084;5.412;2022-12-18T12:44:54;0.30;99.90
61912;DHT22;49973;52.084;5.412;2022-12-18T12:47:28;0.20;99.90
61912;DHT22;49973;52.084;5.412;2022-12-18T12:50:01;0.30;99.90
61912;DHT22;49973;52.084;5.412;2022-12-18T12:52:37;0.50;99.90
61912;DHT22;49973;52.084;5.412;2022-12-18T12:55:25;0.40;99.90
61912;DHT22;49973;52.084;5.412;2022-12-18T12:58:01;0.30;99.90
61912;DHT22;49973;52.084;5.412;2022-12-18T13:00:36;0.40;99.90
61912;DHT22;49973;52.084;5.412;2022-12-18T13:03:12;0.40;99.90
61912;DHT22;49973;52.084;5.412;2022-12-18T13:05:48;0.40;99.90
61912;DHT22;49973;52.084;5.412;2022-12-18T13:08:24;0.40;99.90
61912;DHT22;49973;52.084;5.412;2022-12-18T13:10:54;0.50;99.90
61912;DHT22;49973;52.084;5.412;2022-12-18T13:13:51;0.50;99.90
61912;DHT22;49973;52.084;5.412;2022-12-18T13:16:20;0.50;99.90
61912;DHT22;49973;52.084;5.412;2022-12-18T13:18:50;0.50;99.90
61912;DHT22;49973;52.084;5.412;2022-12-18T13:21:23;0.50;99.90
61912;DHT22;49973;52.084;5.412;2022-12-18T13:23:53;0.50;99.90
61912;DHT22;49973;52.084;5.412;2022-12-18T13:26:30;0.60;99.90
61912;DHT22;49973;52.084;5.412;2022-12-18T13:29:02;0.60;99.90
61912;DHT22;49973;52.084;5.412;2022-12-18T13:34:40;0.60;99.90
61912;DHT22;49973;52.084;5.412;2022-12-18T13:37:41;0.60;99.90
61912;DHT22;49973;52.084;5.412;2022-12-18T13:43:31;0.60;99.90
61912;DHT22;49973;52.084;5.412;2022-12-18T13:46:20;0.60;99.90
61912;DHT22;49973;52.084;5.412;2022-12-18T13:49:01;0.60;99.90
61912;DHT22;49973;52.084;5.412;2022-12-18T13:51:33;0.60;99.90
61912;DHT22;49973;52.084;5.412;2022-12-18T13:54:12;0.60;99.90
61912;DHT22;49973;52.084;5.412;2022-12-18T13:56:45;0.60;99.90
61912;DHT22;49973;52.084;5.412;2022-12-18T13:59:17;0.60;99.90
61912;DHT22;49973;52.084;5.412;2022-12-18T14:01:54;0.60;99.90
61912;DHT22;49973;52.084;5.412;2022-12-18T14:04:26;0.60;99.90
61912;DHT22;49973;52.084;5.412;2022-12-18T14:06:58;0.60;99.90
61912;DHT22;49973;52.084;5.412;2022-12-18T14:09:30;0.60;99.90
61912;DHT22;49973;52.084;5.412;2022-12-18T14:12:00;0.60;99.90
61912;DHT22;49973;52.084;5.412;2022-12-18T14:14:48;0.60;99.90
61912;DHT22;49973;52.084;5.412;2022-12-18T14:17:22;0.60;99.90
61912;DHT22;49973;52.084;5.412;2022-12-18T14:19:52;0.60;99.90
61912;DHT22;49973;52.084;5.412;2022-12-18T14:22:24;0.60;99.90
61912;DHT22;49973;52.084;5.412;2022-12-18T14:25:15;0.70;99.90
61912;DHT22;49973;52.084;5.412;2022-12-18T14:27:45;0.60;99.90
61912;DHT22;49973;52.084;5.412;2022-12-18T14:30:26;0.70;99.90
61912;DHT22;49973;52.084;5.412;2022-12-18T14:33:04;0.70;99.90
61912;DHT22;49973;52.084;5.412;2022-12-18T14:35:34;0.60;99.90
61912;DHT22;49973;52.084;5.412;2022-12-18T14:38:18;0.60;99.90
61912;DHT22;49973;52.084;5.412;2022-12-18T14:40:48;0.60;99.90
61912;DHT22;49973;52.084;5.412;2022-12-18T14:43:20;0.60;99.90
61912;DHT22;49973;52.084;5.412;2022-12-18T14:45:49;0.60;99.90
61912;DHT22;49973;52.084;5.412;2022-12-18T14:48:33;0.60;99.90
61912;DHT22;49973;52.084;5.412;2022-12-18T14:51:04;0.60;99.90
61912;DHT22;49973;52.084;5.412;2022-12-18T14:53:36;0.60;99.90
61912;DHT22;49973;52.084;5.412;2022-12-18T14:56:14;0.60;99.90
61912;DHT22;49973;52.084;5.412;2022-12-18T14:58:48;0.60;99.90
61912;DHT22;49973;52.084;5.412;2022-12-18T15:01:22;0.60;99.90
61912;DHT22;49973;52.084;5.412;2022-12-18T15:03:54;0.60;99.90
61912;DHT22;49973;52.084;5.412;2022-12-18T15:06:30;0.60;99.90
61912;DHT22;49973;52.084;5.412;2022-12-18T15:08:59;0.60;99.90
61912;DHT22;49973;52.084;5.412;2022-12-18T15:11:33;0.60;99.90
61912;DHT22;49973;52.084;5.412;2022-12-18T15:14:23;0.60;99.90
61912;DHT22;49973;52.084;5.412;2022-12-18T15:16:53;0.60;99.90
61912;DHT22;49973;52.084;5.412;2022-12-18T15:19:28;0.60;99.90
61912;DHT22;49973;52.084;5.412;2022-12-18T15:22:00;0.60;99.90
61912;DHT22;49973;52.084;5.412;2022-12-18T15:24:33;0.60;99.90
61912;DHT22;49973;52.084;5.412;2022-12-18T15:27:02;0.60;99.90
61912;DHT22;49973;52.084;5.412;2022-12-18T15:29:30;0.60;99.90
61912;DHT22;49973;52.084;5.412;2022-12-18T15:32:00;0.60;99.90
61912;DHT22;49973;52.084;5.412;2022-12-18T15:34:31;0.70;99.90
61912;DHT22;49973;52.084;5.412;2022-12-18T15:37:01;0.70;99.90
61912;DHT22;49973;52.084;5.412;2022-12-18T15:39:30;0.60;99.90
61912;DHT22;49973;52.084;5.412;2022-12-18T15:42:00;0.70;99.90
61912;DHT22;49973;52.084;5.412;2022-12-18T15:44:46;0.70;99.90
61912;DHT22;49973;52.084;5.412;2022-12-18T15:47:15;0.70;99.90
61912;DHT22;49973;52.084;5.412;2022-12-18T15:49:45;0.70;99.90
61912;DHT22;49973;52.084;5.412;2022-12-18T15:52:13;0.70;99.90
61912;DHT22;49973;52.084;5.412;2022-12-18T15:54:52;0.60;99.90
61912;DHT22;49973;52.084;5.412;2022-12-18T15:57:38;0.70;99.90
61912;DHT22;49973;52.084;5.412;2022-12-18T16:00:11;0.70;99.90
61912;DHT22;49973;52.084;5.412;2022-12-18T16:02:40;0.70;99.90
61912;DHT22;49973;52.084;5.412;2022-12-18T16:05:15;0.60;99.90
61912;DHT22;49973;52.084;5.412;2022-12-18T16:07:44;0.60;99.90
61912;DHT22;49973;52.084;5.412;2022-12-18T16:10:13;0.60;99.90
61912;DHT22;49973;52.084;5.412;2022-12-18T16:12:42;0.60;99.90
61912;DHT22;49973;52.084;5.412;2022-12-18T16:15:12;0.60;99.90